Flight Track Log - Related Links

Times and Time Zones

All times are in EDT time to prevent confusion due to time zone crossing. See the RPA3865 flight status page for this flight to view local times or setup timezone preferences in your user account.

Time Position Orientation Groundspeed Altitude Reporting Facility
EDT Latitude Longitude Course Direction KTS MPH feet Rate Location/Type
Mon 06:08:49 AM 36.9056 -76.1894 293° West 175 201 700  Level Washington Center
Mon 06:09:57 AM 36.9642 -76.1508 28° Northeast 260 299 2,600 1,911 Climbing Washington Center
Mon 06:11:00 AM 37.0498 -76.5228 300° West  Level FlightAware Approximate
Mon 06:11:04 AM 37.0394 -76.1306 12° North 260 299 5,000  Level Washington Center
Mon 06:12:00 AM 37.1010 -76.6356 300° West  Level FlightAware Approximate
Mon 06:12:06 AM 37.0683 -76.2114 294° West 182 209 8,300  Level Washington Center
Mon 06:13:00 AM 37.1523 -76.7484 300° West  Level FlightAware Approximate
Mon 06:13:03 AM 37.0969 -76.2819 297° West 189 217 11,300  Level Washington Center
Mon 06:14:00 AM 37.1991 -76.8640 293° West  Level FlightAware Approximate
Mon 06:14:06 AM 37.1594 -76.3058 343° North 215 247 13,500  Level Washington Center
Mon 06:15:04 AM 37.2303 -76.3328 343° North 232 267 15,400 1,881 Climbing Washington Center
Mon 06:16:04 AM 37.3011 -76.3594 343° North 252 290 17,200 1,550 Climbing Washington Center
Mon 06:17:04 AM 37.3717 -76.3836 345° North 262 302 18,500 1,361 Climbing Washington Center
Mon 06:18:03 AM 37.4467 -76.4133 343° North 267 307 19,900 1,261 Climbing Washington Center
Mon 06:19:03 AM 37.5133 -76.4375 344° North 267 307 21,000 545 Climbing Washington Center
Mon 06:20:04 AM 37.5944 -76.4697 343° North 281 323 21,000  Level Washington Center
Mon 06:21:05 AM 37.6839 -76.5022 344° North 312 359 21,000  Level Washington Center
Mon 06:22:05 AM 37.7775 -76.5403 342° North 330 380 21,000  Level Washington Center
Mon 06:23:06 AM 37.8731 -76.5756 344° North 350 403 21,000  Level Washington Center
Mon 06:24:06 AM 37.9775 -76.5506 11° North 356 410 21,000  Level Washington Center
Mon 06:25:05 AM 38.0800 -76.5069 19° North 370 426 21,000 -454 Level Washington Center
Mon 06:26:05 AM 38.1847 -76.4661 17° North 375 432 20,100  Descending Washington Center
Mon 06:27:04 AM 38.2850 -76.4275 17° North 380 437 21,000 -1,563 Climbing Washington Center
Mon 06:28:04 AM 38.3936 -76.3892 15° North 380 437 17,000 -3,150 Descending Washington Center
Mon 06:29:04 AM 38.4814 -76.3556 17° North 373 429 14,700 -1,934 Descending Washington Center
Mon 06:30:05 AM 38.5756 -76.3192 17° North 359 413 13,100 -857 Descending Washington Center
Mon 06:31:03 AM 38.6611 -76.2908 14° North 337 388 13,000 -50 Descending Washington Center
Mon 06:32:04 AM 38.7531 -76.2625 14° North 332 382 13,000 -49 Level Washington Center
Mon 06:33:05 AM 38.8408 -76.2286 17° North 332 382 12,900 -454 Descending Washington Center
Mon 06:34:03 AM 38.9264 -76.1758 26° Northeast 332 382 12,100 -500 Descending Washington Center
Mon 06:35:05 AM 39.0142 -76.1233 25° Northeast 338 389 11,900 -545 Descending Washington Center
Mon 06:36:04 AM 39.1000 -76.0703 26° Northeast 338 389 11,000 -454 Descending Washington Center
Mon 06:37:04 AM 39.1814 -76.0200 26° Northeast 333 383 11,000  Level Washington Center
Mon 06:38:06 AM 39.2669 -75.9669 26° Northeast 333 383 11,000 29 Level Washington Center
Mon 06:40:30 AM 39.4833 -75.8333 25° Northeast 338 389 11,100 30 Climbing Philadelphia TRACON
Mon 06:41:25 AM 39.5333 -75.7500 52° Northeast 342 394 11,100  Level Philadelphia TRACON
Mon 06:42:30 AM 39.5833 -75.6333 61° Northeast 341 392 11,100  Level Philadelphia TRACON
Mon 06:43:30 AM 39.6333 -75.5167 61° Northeast 342 394 11,100  Level Philadelphia TRACON
Mon 06:44:31 AM 39.6833 -75.4167 57° Northeast 341 392 11,100  Level Philadelphia TRACON
Mon 06:45:30 AM 39.7167 -75.3000 70° East 340 391 11,100  Level Philadelphia TRACON
Mon 06:46:31 AM 39.7667 -75.2000 57° Northeast 341 392 11,100 -50 Level Philadelphia TRACON
Mon 06:47:31 AM 39.8167 -75.0833 61° Northeast 333 383 11,000 -600 Descending Philadelphia TRACON
Mon 06:48:31 AM 39.8500 -75.0000 62° Northeast 284 327 9,900 -1,021 Descending Philadelphia TRACON
Mon 06:50:45 AM 39.9833 -74.8167 46° Northeast 291 335 7,700 -894 Descending New York TRACON
Mon 06:51:39 AM 40.0167 -74.7500 57° Northeast 283 326 7,100 -368 Descending New York TRACON
Mon 06:52:39 AM 40.0667 -74.6833 46° Northeast 283 326 7,000 -53 Descending New York TRACON
Mon 06:53:33 AM 40.1167 -74.6167 46° Northeast 280 322 7,000  Level New York TRACON
Mon 06:54:39 AM 40.1833 -74.5333 44° Northeast 283 326 7,000 48 Level New York TRACON
Mon 06:55:39 AM 40.2500 -74.4833 30° Northeast 285 328 7,100 -200 Climbing New York TRACON
Mon 06:56:39 AM 40.3167 -74.5000 349° North 282 325 6,600 -500 Descending New York TRACON
Mon 06:57:39 AM 40.4000 -74.5167 351° North 269 310 6,100 -300 Descending New York TRACON
Mon 06:58:39 AM 40.4667 -74.5167 360° North 277 319 6,000 -48 Descending New York TRACON
Mon 06:59:45 AM 40.5667 -74.5500 346° North 276 318 6,000  Level New York TRACON
Mon 07:00:45 AM 40.6333 -74.5500 360° North 277 319 6,000  Level New York TRACON
Mon 07:01:45 AM 40.7167 -74.5333 North 279 321 6,000  Level New York TRACON
Mon 07:02:51 AM 40.7833 -74.5000 21° North 280 322 6,000 -450 Level New York TRACON
Mon 07:03:45 AM 40.8500 -74.4333 37° Northeast 276 318 5,100 -526 Descending New York TRACON
Mon 07:04:45 AM 40.9000 -74.3833 37° Northeast 266 306 5,000 -53 Descending New York TRACON
Mon 07:05:39 AM 40.9333 -74.3000 62° Northeast 259 298 5,000 -421 Level New York TRACON
Mon 07:06:39 AM 40.9167 -74.2167 105° East 248 285 4,200 -600 Descending New York TRACON
Mon 07:07:39 AM 40.9000 -74.1333 105° East 192 221 3,800 -571 Descending New York TRACON
Mon 07:08:45 AM 40.8667 -74.1000 143° Southeast 174 200 3,000 -600 Descending New York TRACON
Mon 07:09:39 AM 40.8333 -74.0833 159° South 171 197 2,600 -579 Descending New York TRACON
Mon 07:10:39 AM 40.7833 -74.1000 194° South 172 198 1,900 -700 Descending New York TRACON

Login

Don't have an account? Register now (free) for customized features, flight alerts, and more!